createdAt,value
2017-12-02T00:00:28.905Z,21.03
2017-12-02T00:02:56.420Z,21.00
2017-12-02T00:05:23.942Z,21.43
2017-12-02T00:07:51.456Z,20.87
2017-12-02T00:10:18.972Z,21.67
2017-12-02T00:12:46.594Z,22.23
2017-12-02T00:15:14.110Z,21.60
2017-12-02T00:17:41.725Z,22.57
2017-12-02T00:20:09.246Z,21.90
2017-12-02T00:22:36.767Z,23.07
2017-12-02T00:25:04.388Z,20.70
2017-12-02T00:27:31.958Z,23.27
2017-12-02T00:29:59.507Z,23.73
2017-12-02T00:32:27.016Z,22.50
2017-12-02T00:34:54.527Z,24.07
2017-12-02T00:37:22.687Z,23.27
2017-12-02T00:39:50.224Z,22.97
2017-12-02T00:42:17.826Z,23.27
2017-12-02T00:44:45.406Z,24.40
2017-12-02T00:47:12.977Z,22.17
2017-12-02T00:49:40.500Z,24.00
2017-12-02T00:52:08.059Z,22.43
2017-12-02T00:54:35.583Z,22.93
2017-12-02T00:57:03.186Z,23.30
2017-12-02T00:59:30.739Z,23.40
2017-12-02T01:01:58.253Z,22.57
2017-12-02T01:04:25.771Z,22.60
2017-12-02T01:06:53.295Z,22.57
2017-12-02T01:09:20.873Z,22.63
2017-12-02T01:11:48.405Z,22.67
2017-12-02T01:14:15.918Z,23.93
2017-12-02T01:16:43.419Z,23.57
2017-12-02T01:19:10.951Z,21.57
2017-12-02T01:21:38.473Z,22.17
2017-12-02T01:24:05.992Z,20.90
2017-12-02T01:26:33.529Z,22.63
2017-12-02T01:29:01.048Z,22.80
2017-12-02T01:31:28.569Z,22.17
2017-12-02T01:33:56.083Z,22.33
2017-12-02T01:36:23.598Z,21.33
2017-12-02T01:38:51.112Z,23.20
2017-12-02T01:41:18.632Z,22.07
2017-12-02T01:43:46.141Z,22.23
2017-12-02T01:46:13.706Z,21.60
2017-12-02T01:48:41.320Z,23.27
2017-12-02T01:51:08.837Z,22.13
2017-12-02T01:53:36.437Z,22.27
2017-12-02T04:30:21.558Z,22.50
2017-12-02T04:32:49.079Z,21.50
2017-12-02T04:35:16.603Z,23.33
2017-12-02T04:37:44.117Z,22.67
2017-12-02T04:40:11.624Z,22.53
2017-12-02T04:42:39.135Z,22.93
2017-12-02T04:45:06.742Z,22.57
2017-12-02T04:47:34.288Z,22.20
2017-12-02T04:50:01.805Z,21.07
2017-12-02T04:52:29.411Z,20.87
2017-12-02T04:54:56.974Z,21.40
2017-12-02T04:57:24.489Z,20.37
2017-12-02T04:59:52.013Z,21.73
2017-12-02T05:02:19.530Z,22.80
2017-12-02T05:04:47.050Z,23.27
2017-12-02T05:07:14.576Z,22.27
2017-12-02T05:09:42.098Z,22.03
2017-12-02T05:12:09.632Z,23.83
2017-12-02T05:14:37.250Z,24.30
2017-12-02T05:17:04.761Z,24.37
2017-12-02T05:19:32.370Z,23.10
2017-12-02T05:21:59.930Z,23.00
2017-12-02T05:24:27.452Z,22.63
2017-12-02T05:26:55.049Z,22.77
2017-12-02T05:29:22.568Z,23.07
2017-12-02T05:31:50.077Z,22.13
2017-12-02T05:34:17.620Z,22.37
2017-12-02T05:36:45.133Z,23.03
2017-12-02T05:39:12.642Z,22.30
2017-12-02T05:41:40.146Z,22.53
2017-12-02T05:44:07.776Z,22.43
2017-12-02T05:46:35.293Z,23.63
2017-12-02T05:49:02.884Z,23.43
2017-12-02T05:51:30.393Z,24.33
2017-12-02T05:53:58.001Z,22.80
2017-12-02T05:56:25.506Z,23.50
2017-12-02T05:58:53.022Z,23.53
2017-12-02T06:01:20.582Z,24.23
2017-12-02T06:03:48.088Z,23.47
2017-12-02T06:06:15.607Z,22.73
2017-12-02T06:08:43.123Z,23.03
2017-12-02T06:11:10.645Z,22.47
2017-12-02T06:13:38.161Z,23.10
2017-12-02T06:16:05.673Z,22.93
2017-12-02T06:18:33.194Z,22.73
2017-12-02T06:21:00.698Z,21.90
2017-12-02T06:23:28.320Z,22.47
2017-12-02T06:25:55.841Z,23.83
2017-12-02T06:28:23.443Z,22.43
2017-12-02T06:30:51.029Z,23.30
2017-12-02T06:33:18.552Z,23.00
2017-12-02T06:35:46.068Z,22.93
2017-12-02T06:38:13.576Z,22.60
2017-12-02T06:40:41.102Z,23.63
2017-12-02T06:43:08.617Z,23.27
2017-12-02T06:45:36.261Z,23.00
2017-12-02T06:48:03.781Z,23.33
2017-12-02T06:50:31.374Z,22.80
2017-12-02T06:52:58.890Z,22.10
2017-12-02T06:55:26.402Z,22.80
2017-12-02T06:57:53.917Z,21.97
2017-12-02T07:00:21.442Z,22.40
2017-12-02T07:02:48.975Z,22.43
2017-12-02T07:05:16.492Z,22.67
2017-12-02T07:07:44.017Z,21.57
2017-12-02T07:10:11.534Z,22.53
2017-12-02T07:12:39.048Z,21.50
2017-12-02T07:15:06.563Z,20.90
2017-12-02T07:17:34.086Z,21.87
2017-12-02T07:20:01.605Z,23.10
2017-12-02T07:22:29.121Z,21.80
2017-12-02T07:24:56.667Z,22.20
2017-12-02T07:27:24.180Z,21.27
2017-12-02T07:29:51.726Z,22.03
2017-12-02T07:32:19.283Z,20.57
2017-12-02T07:34:46.805Z,22.30
2017-12-02T07:37:14.332Z,21.43
2017-12-02T07:39:41.844Z,22.47
2017-12-02T07:42:09.357Z,20.93
2017-12-02T07:44:36.869Z,22.10
2017-12-02T07:47:04.377Z,23.03
2017-12-02T07:49:32.001Z,21.93
2017-12-02T07:54:52.693Z,22.23
2017-12-02T07:57:20.285Z,21.47
2017-12-02T07:59:47.809Z,21.67
2017-12-02T08:02:15.328Z,22.17
2017-12-02T08:04:42.846Z,22.83
2017-12-02T08:07:10.373Z,22.40
2017-12-02T08:09:37.898Z,21.47
2017-12-02T08:12:05.412Z,22.27
2017-12-02T08:14:32.935Z,21.80
2017-12-02T08:17:00.465Z,20.70
2017-12-02T08:19:28.000Z,19.87
2017-12-02T08:21:55.515Z,20.87
2017-12-02T08:24:23.030Z,20.27
2017-12-02T08:26:50.552Z,21.83
2017-12-02T08:29:18.079Z,21.13
2017-12-02T08:31:45.602Z,20.73
2017-12-02T08:34:13.130Z,20.60
2017-12-02T08:36:40.666Z,21.87
2017-12-02T08:39:08.177Z,21.83
2017-12-02T08:41:35.691Z,21.40
2017-12-02T08:44:03.220Z,21.50
2017-12-02T08:46:30.738Z,22.10
2017-12-02T08:48:58.260Z,20.40
2017-12-02T08:51:25.804Z,21.30
2017-12-02T08:53:53.327Z,21.93
2017-12-02T08:56:20.851Z,20.93
2017-12-02T08:58:48.380Z,21.00
2017-12-02T09:01:15.901Z,20.60
2017-12-02T09:03:43.427Z,21.17
2017-12-02T09:06:10.948Z,22.00
2017-12-02T09:08:38.487Z,21.17
2017-12-02T09:11:06.007Z,22.07
2017-12-02T09:13:33.553Z,23.20
2017-12-02T09:16:01.190Z,23.37
2017-12-02T09:18:28.719Z,22.27
2017-12-02T09:20:56.247Z,21.70
2017-12-02T09:23:23.773Z,22.00
2017-12-02T09:25:51.308Z,22.30
2017-12-02T09:28:18.835Z,21.87
2017-12-02T09:30:46.449Z,22.53
2017-12-02T09:33:13.980Z,21.77
2017-12-02T09:35:41.502Z,21.17
2017-12-02T09:38:09.025Z,21.00
2017-12-02T09:40:36.546Z,19.47
2017-12-02T09:43:04.081Z,22.50
2017-12-02T09:45:31.594Z,22.37
2017-12-02T09:47:59.110Z,21.23
2017-12-02T09:50:26.654Z,21.27
2017-12-02T09:52:54.182Z,20.77
2017-12-02T09:55:21.698Z,20.83
2017-12-02T09:57:49.233Z,20.33
2017-12-02T10:00:16.750Z,20.00
2017-12-02T10:02:44.274Z,20.57
2017-12-02T10:05:12.219Z,20.07
2017-12-02T10:07:39.735Z,20.60
2017-12-02T10:10:07.249Z,19.70
2017-12-02T10:12:34.760Z,19.83
2017-12-02T10:15:02.296Z,19.57
2017-12-02T10:17:29.820Z,20.33
2017-12-02T10:19:57.346Z,18.27
2017-12-02T10:22:24.871Z,18.00
2017-12-02T10:24:52.388Z,18.93
2017-12-02T10:27:19.917Z,19.20
2017-12-02T10:29:47.437Z,19.17
2017-12-02T10:32:14.966Z,17.63
2017-12-02T10:34:42.486Z,13.73
2017-12-02T10:37:10.012Z,12.63
2017-12-02T10:39:37.543Z,13.07
2017-12-02T10:42:05.071Z,13.77
2017-12-02T10:44:32.603Z,13.17
2017-12-02T10:47:00.149Z,14.83
2017-12-02T10:49:27.682Z,16.20
2017-12-02T10:51:55.201Z,15.77
2017-12-02T10:54:22.716Z,16.03
2017-12-02T10:56:50.234Z,13.97
2017-12-02T10:59:17.748Z,15.13
2017-12-02T11:01:45.274Z,14.10
2017-12-02T11:04:12.793Z,15.37
2017-12-02T11:06:40.325Z,16.10
2017-12-02T11:09:07.847Z,14.50
2017-12-02T11:11:35.361Z,12.87
2017-12-02T11:14:02.873Z,13.63
2017-12-02T11:16:30.388Z,15.30
2017-12-02T11:18:57.914Z,13.87
2017-12-02T11:21:25.439Z,14.50
2017-12-02T11:23:52.953Z,14.97
2017-12-02T11:26:20.479Z,14.23
2017-12-02T11:28:48.000Z,14.43
2017-12-02T11:31:15.514Z,15.53
2017-12-02T11:33:43.042Z,15.27
2017-12-02T11:36:10.578Z,15.43
2017-12-02T11:38:38.108Z,16.00
2017-12-02T11:41:05.631Z,14.10
2017-12-02T11:43:33.149Z,13.87
2017-12-02T11:46:00.674Z,13.13
2017-12-02T11:48:28.199Z,13.90
2017-12-02T11:50:55.726Z,13.87
2017-12-02T11:53:23.259Z,14.03
2017-12-02T11:55:50.773Z,14.43
2017-12-02T11:58:18.297Z,14.23
2017-12-02T12:00:45.825Z,14.53
2017-12-02T12:03:13.358Z,14.73
2017-12-02T12:05:40.875Z,15.57
2017-12-02T12:08:08.398Z,14.40
2017-12-02T12:10:35.931Z,13.83
2017-12-02T12:13:03.453Z,14.40
2017-12-02T12:15:30.980Z,15.07
2017-12-02T12:17:58.500Z,14.13
2017-12-02T12:20:26.017Z,13.53
2017-12-02T12:22:53.543Z,13.40
2017-12-02T12:25:21.069Z,14.33
2017-12-02T12:27:48.600Z,14.07
2017-12-02T12:30:16.130Z,14.07
2017-12-02T12:32:43.671Z,14.37
2017-12-02T12:35:11.193Z,12.07
2017-12-02T12:37:38.722Z,12.93
2017-12-02T12:40:06.245Z,12.63
2017-12-02T12:42:33.762Z,12.87
2017-12-02T12:45:01.285Z,13.50
2017-12-02T12:47:28.817Z,12.77
2017-12-02T12:49:56.337Z,12.40
2017-12-02T12:52:23.856Z,12.60
2017-12-02T12:54:51.399Z,13.03
2017-12-02T12:57:19.255Z,13.23
2017-12-02T12:59:46.906Z,13.40
2017-12-02T13:02:14.615Z,12.47
2017-12-02T13:04:43.437Z,13.80
2017-12-02T13:07:18.498Z,13.10
2017-12-02T13:09:46.108Z,13.57
2017-12-02T13:12:13.636Z,13.80
2017-12-02T13:14:41.168Z,13.07
2017-12-02T13:17:08.694Z,13.67
2017-12-02T13:19:36.213Z,13.63
2017-12-02T13:22:03.735Z,13.60
2017-12-02T13:24:31.259Z,13.50
2017-12-02T13:26:58.790Z,13.73
2017-12-02T13:29:26.322Z,14.33
2017-12-02T13:31:53.850Z,12.97
2017-12-02T13:34:21.377Z,14.17
2017-12-02T13:36:48.899Z,12.30
2017-12-02T13:39:16.452Z,12.93
2017-12-02T13:41:43.978Z,12.77
2017-12-02T13:44:11.502Z,12.73
2017-12-02T13:46:39.033Z,12.73
2017-12-02T13:49:06.572Z,13.50
2017-12-02T13:51:34.092Z,14.20
2017-12-02T13:54:01.619Z,13.73
2017-12-02T13:56:29.178Z,13.50
2017-12-02T13:58:58.258Z,13.40
2017-12-02T14:01:25.952Z,14.50
2017-12-02T14:03:53.618Z,13.63
2017-12-02T14:06:21.660Z,14.07
2017-12-02T14:08:49.997Z,13.93
2017-12-02T14:11:17.665Z,14.60
2017-12-02T14:13:45.192Z,14.67
2017-12-02T14:16:12.839Z,13.97
2017-12-02T14:18:40.363Z,15.60
2017-12-02T14:21:07.909Z,14.37
2017-12-02T14:23:35.451Z,14.87
2017-12-02T14:26:03.428Z,14.40
2017-12-02T14:28:30.964Z,13.57
2017-12-02T14:30:58.942Z,14.00
2017-12-02T14:33:26.477Z,13.87
2017-12-02T14:35:54.007Z,14.43
2017-12-02T14:38:21.524Z,14.37
2017-12-02T14:40:49.107Z,15.00
2017-12-02T14:43:16.658Z,14.73
2017-12-02T14:45:44.247Z,15.00
2017-12-02T14:48:11.793Z,18.23
2017-12-02T14:50:39.310Z,14.73
2017-12-02T14:53:06.927Z,15.10
2017-12-02T14:55:34.458Z,14.50
2017-12-02T14:58:03.413Z,13.70
2017-12-02T15:00:30.981Z,15.17
2017-12-02T15:02:58.503Z,13.90
2017-12-02T15:05:26.042Z,13.77
2017-12-02T15:07:53.591Z,14.50
2017-12-02T15:10:21.177Z,15.37
2017-12-02T15:12:48.705Z,13.73
2017-12-02T15:15:16.221Z,14.30
2017-12-02T15:17:43.741Z,15.57
2017-12-02T15:20:11.286Z,15.80
2017-12-02T15:22:38.818Z,14.63
2017-12-02T15:25:06.369Z,14.23
2017-12-02T15:27:33.892Z,14.87
2017-12-02T15:30:01.488Z,14.70
2017-12-02T15:32:28.979Z,15.00
2017-12-02T15:34:56.508Z,15.03
2017-12-02T15:37:24.030Z,15.93
2017-12-02T15:39:51.585Z,15.27
2017-12-02T15:42:19.122Z,15.57
2017-12-02T15:44:46.641Z,16.47
2017-12-02T15:47:14.189Z,14.90
2017-12-02T15:49:41.723Z,14.37
2017-12-02T15:52:09.288Z,15.53
2017-12-02T15:54:36.807Z,16.20
2017-12-02T15:57:04.328Z,17.00
2017-12-02T15:59:31.843Z,16.50
2017-12-02T16:01:59.684Z,17.00
2017-12-02T16:04:27.250Z,16.43
2017-12-02T16:06:54.774Z,17.03
2017-12-02T16:09:22.346Z,17.47
2017-12-02T16:11:49.881Z,18.67
2017-12-02T16:14:17.401Z,19.00
2017-12-02T16:16:44.926Z,18.83
2017-12-02T16:19:12.455Z,17.53
2017-12-02T16:21:40.011Z,18.50
2017-12-02T16:24:07.615Z,18.97
2017-12-02T16:26:35.313Z,20.00
2017-12-02T16:29:02.871Z,20.37
2017-12-02T16:31:30.514Z,19.03
2017-12-02T16:33:58.251Z,20.60
2017-12-02T16:36:27.096Z,20.87
2017-12-02T16:38:55.335Z,21.50
2017-12-02T16:41:23.419Z,21.53
2017-12-02T16:43:51.032Z,21.40
2017-12-02T16:46:18.802Z,22.07
2017-12-02T16:48:46.489Z,21.73
2017-12-02T16:51:14.166Z,22.07
2017-12-02T16:53:43.567Z,22.27
2017-12-02T16:56:11.274Z,21.83
2017-12-02T16:58:39.017Z,22.47
2017-12-02T17:01:06.646Z,22.13
2017-12-02T17:03:34.203Z,23.10
2017-12-02T17:06:01.751Z,21.93
2017-12-02T17:08:29.316Z,21.90
2017-12-02T17:10:56.834Z,22.30
2017-12-02T17:13:24.356Z,21.70
2017-12-02T17:15:52.094Z,22.60
2017-12-02T17:18:19.831Z,21.63
2017-12-02T17:20:47.670Z,22.53
2017-12-02T17:23:15.686Z,22.37
2017-12-02T17:25:43.618Z,22.97
2017-12-02T17:28:11.407Z,22.57
2017-12-02T17:30:39.232Z,22.57
2017-12-02T17:33:06.750Z,23.30
2017-12-02T17:35:34.265Z,21.83
2017-12-02T17:38:01.785Z,21.73
2017-12-02T17:40:29.301Z,21.57
2017-12-02T17:42:56.834Z,22.30
2017-12-02T17:45:24.350Z,21.47
2017-12-02T17:47:51.861Z,21.97
2017-12-02T17:50:19.376Z,22.20
2017-12-02T17:52:46.895Z,22.07
2017-12-02T17:55:14.414Z,21.50
2017-12-02T17:57:41.933Z,22.33
2017-12-02T18:00:09.454Z,22.20
2017-12-02T18:02:36.969Z,23.30
2017-12-02T18:05:04.485Z,20.33
2017-12-02T18:07:32.005Z,21.73
2017-12-02T18:09:59.525Z,21.20
2017-12-02T18:12:27.048Z,20.20
2017-12-02T18:14:54.566Z,21.13
2017-12-02T18:17:22.086Z,20.17
2017-12-02T18:19:49.611Z,19.60
2017-12-02T18:22:17.139Z,20.43
2017-12-02T18:24:44.664Z,20.40
2017-12-02T18:27:12.190Z,19.63
2017-12-02T18:29:39.704Z,20.23
2017-12-02T18:32:07.224Z,20.30
2017-12-02T18:34:34.740Z,20.67
2017-12-02T18:37:02.263Z,22.13
2017-12-02T18:39:29.799Z,20.53
2017-12-02T18:41:57.317Z,21.10
2017-12-02T18:44:24.840Z,20.17
2017-12-02T18:46:52.360Z,19.77
2017-12-02T18:49:19.908Z,21.03
2017-12-02T18:51:47.444Z,20.77
2017-12-02T18:54:14.957Z,19.87
2017-12-02T18:56:42.470Z,20.10
2017-12-02T18:59:09.982Z,20.17
2017-12-02T19:01:37.513Z,19.60
2017-12-02T19:04:05.046Z,19.80
2017-12-02T19:06:32.569Z,18.87
2017-12-02T19:09:00.308Z,19.20
2017-12-02T19:11:27.843Z,17.53
2017-12-02T19:13:55.411Z,19.67
2017-12-02T19:16:22.997Z,20.27
2017-12-02T19:18:50.558Z,19.60
2017-12-02T19:21:18.073Z,19.43
2017-12-02T19:23:45.783Z,19.13
2017-12-02T19:26:13.348Z,19.93
2017-12-02T19:28:40.896Z,18.83
2017-12-02T19:31:08.415Z,18.87
2017-12-02T19:33:35.936Z,19.63
2017-12-02T19:36:03.453Z,19.10
2017-12-02T19:38:30.990Z,20.00
2017-12-02T19:40:58.509Z,20.10
2017-12-02T19:43:26.056Z,19.10
2017-12-02T19:45:53.582Z,20.27
2017-12-02T19:48:21.143Z,21.03
2017-12-02T19:50:48.670Z,20.50
2017-12-02T19:53:16.299Z,20.10
2017-12-02T19:55:43.817Z,18.97
2017-12-02T19:58:11.429Z,20.67
2017-12-02T20:00:41.409Z,19.77
2017-12-02T20:03:08.933Z,19.80
2017-12-02T20:05:36.552Z,20.93
2017-12-02T20:08:04.069Z,21.37
2017-12-02T20:10:31.610Z,19.67
2017-12-02T20:12:59.144Z,20.23
2017-12-02T20:15:26.661Z,22.07
2017-12-02T20:17:54.367Z,22.30
2017-12-02T20:20:21.877Z,23.40
2017-12-02T20:22:49.435Z,23.67
2017-12-02T20:25:16.958Z,23.47
2017-12-02T20:27:44.604Z,23.53
2017-12-02T20:30:12.156Z,23.87
2017-12-02T20:32:39.677Z,23.87
2017-12-02T20:35:07.212Z,23.27
2017-12-02T20:37:34.943Z,22.73
2017-12-02T20:40:02.472Z,23.40
2017-12-02T20:42:30.026Z,22.00
2017-12-02T20:44:57.638Z,23.60
2017-12-02T20:47:25.292Z,23.23
2017-12-02T20:49:52.824Z,22.43
2017-12-02T20:52:20.406Z,22.67
2017-12-02T20:54:48.129Z,23.07
2017-12-02T20:57:15.657Z,21.50
2017-12-02T20:59:43.179Z,19.23
2017-12-02T21:02:10.757Z,19.10
2017-12-02T21:04:38.277Z,19.00
2017-12-02T21:07:05.810Z,19.07
2017-12-02T21:09:33.326Z,18.23
2017-12-02T21:12:00.852Z,18.23
2017-12-02T21:14:28.420Z,17.87
2017-12-02T21:16:55.934Z,16.67
2017-12-02T21:19:23.464Z,16.37
2017-12-02T21:21:50.980Z,16.90
2017-12-02T21:24:18.518Z,18.20
2017-12-02T21:26:46.040Z,17.27
2017-12-02T21:29:13.559Z,17.47
2017-12-02T21:31:41.091Z,17.70
2017-12-02T21:34:08.604Z,18.73
2017-12-02T21:36:36.323Z,17.10
2017-12-02T21:39:03.845Z,17.60
2017-12-02T21:41:31.484Z,17.60
2017-12-02T21:43:58.997Z,17.67
2017-12-02T21:46:26.509Z,16.53
2017-12-02T21:48:54.024Z,16.77
2017-12-02T21:51:21.538Z,17.23
2017-12-02T21:53:49.054Z,18.10
2017-12-02T21:56:16.579Z,17.57
2017-12-02T21:58:44.099Z,19.03
2017-12-02T22:01:11.617Z,18.60
2017-12-02T22:03:39.132Z,18.23
2017-12-02T22:06:06.672Z,18.70
2017-12-02T22:08:34.186Z,18.07
2017-12-02T22:11:01.788Z,18.63
2017-12-02T22:13:29.307Z,19.33
2017-12-02T22:15:56.820Z,19.23
2017-12-02T22:18:24.374Z,18.83
2017-12-02T22:20:51.927Z,19.73
2017-12-02T22:23:19.482Z,19.07
2017-12-02T22:25:47.118Z,19.33
2017-12-02T22:28:14.635Z,20.17
2017-12-02T22:30:42.209Z,20.60
2017-12-02T22:33:09.723Z,18.77
2017-12-02T22:35:37.247Z,20.53
2017-12-02T22:38:04.773Z,19.27
2017-12-02T22:40:32.298Z,20.60
2017-12-02T22:42:59.815Z,19.67
2017-12-02T22:45:27.334Z,20.33
2017-12-02T22:47:55.056Z,20.70
2017-12-02T22:50:22.567Z,19.97
2017-12-02T22:52:50.137Z,20.97
2017-12-02T22:55:17.653Z,20.70
2017-12-02T22:57:46.104Z,21.20
2017-12-02T23:00:13.616Z,21.90
2017-12-02T23:02:41.153Z,20.43
2017-12-02T23:05:08.678Z,21.77
2017-12-02T23:07:36.202Z,20.73
2017-12-02T23:10:03.733Z,21.97
2017-12-02T23:12:31.317Z,22.40
2017-12-02T23:14:59.017Z,21.70
2017-12-02T23:17:26.566Z,22.40
2017-12-02T23:19:54.169Z,22.03
2017-12-02T23:22:22.518Z,23.00
2017-12-02T23:24:50.033Z,22.17
2017-12-02T23:27:17.550Z,21.93
2017-12-02T23:29:45.062Z,21.60
2017-12-02T23:32:12.569Z,21.70
2017-12-02T23:34:40.087Z,21.77
2017-12-02T23:37:08.346Z,21.90
2017-12-02T23:39:36.383Z,22.90
2017-12-02T23:42:03.908Z,23.27
2017-12-02T23:44:32.368Z,23.67
2017-12-02T23:47:00.241Z,23.63
2017-12-02T23:49:27.778Z,23.70
2017-12-02T23:51:55.345Z,22.73
2017-12-02T23:54:22.905Z,22.47
2017-12-02T23:56:50.415Z,24.00
2017-12-02T23:59:17.937Z,25.00
